sensor_id;sensor_type;location;lat;lon;timestamp;P1;durP1;ratioP1;P2;durP2;ratioP2
19137;SDS011;68178;52.188;5.598;2023-06-24T00:01:24;14.27;;;13.05;;
19137;SDS011;68178;52.188;5.598;2023-06-24T00:03:50;15.25;;;13.75;;
19137;SDS011;68178;52.188;5.598;2023-06-24T00:06:18;15.18;;;13.57;;
19137;SDS011;68178;52.188;5.598;2023-06-24T00:08:50;14.95;;;13.45;;
19137;SDS011;68178;52.188;5.598;2023-06-24T00:11:16;15.70;;;14.07;;
19137;SDS011;68178;52.188;5.598;2023-06-24T00:13:42;12.63;;;11.52;;
19137;SDS011;68178;52.188;5.598;2023-06-24T00:16:09;13.93;;;12.75;;
19137;SDS011;68178;52.188;5.598;2023-06-24T00:18:35;14.70;;;13.32;;
19137;SDS011;68178;52.188;5.598;2023-06-24T00:21:02;14.27;;;12.88;;
19137;SDS011;68178;52.188;5.598;2023-06-24T00:23:28;12.80;;;11.50;;
19137;SDS011;68178;52.188;5.598;2023-06-24T00:26:01;14.02;;;12.73;;
19137;SDS011;68178;52.188;5.598;2023-06-24T00:28:27;16.52;;;13.18;;
19137;SDS011;68178;52.188;5.598;2023-06-24T00:30:53;14.65;;;13.13;;
19137;SDS011;68178;52.188;5.598;2023-06-24T00:33:19;13.95;;;12.57;;
19137;SDS011;68178;52.188;5.598;2023-06-24T00:35:45;13.57;;;12.27;;
19137;SDS011;68178;52.188;5.598;2023-06-24T00:38:10;12.38;;;11.18;;
19137;SDS011;68178;52.188;5.598;2023-06-24T00:40:36;13.68;;;11.85;;
19137;SDS011;68178;52.188;5.598;2023-06-24T00:43:03;14.65;;;11.52;;
19137;SDS011;68178;52.188;5.598;2023-06-24T00:45:30;14.73;;;13.32;;
19137;SDS011;68178;52.188;5.598;2023-06-24T00:47:55;13.30;;;12.00;;
19137;SDS011;68178;52.188;5.598;2023-06-24T00:50:23;13.95;;;12.65;;
19137;SDS011;68178;52.188;5.598;2023-06-24T00:52:49;13.82;;;12.52;;
19137;SDS011;68178;52.188;5.598;2023-06-24T00:55:15;15.75;;;13.68;;
19137;SDS011;68178;52.188;5.598;2023-06-24T00:57:42;14.88;;;13.45;;
19137;SDS011;68178;52.188;5.598;2023-06-24T01:00:09;14.68;;;13.13;;
19137;SDS011;68178;52.188;5.598;2023-06-24T01:02:39;14.57;;;13.07;;
19137;SDS011;68178;52.188;5.598;2023-06-24T01:05:07;14.80;;;13.30;;
19137;SDS011;68178;52.188;5.598;2023-06-24T01:07:34;13.18;;;11.95;;
19137;SDS011;68178;52.188;5.598;2023-06-24T01:10:02;12.65;;;11.45;;
19137;SDS011;68178;52.188;5.598;2023-06-24T01:12:33;14.57;;;13.18;;
19137;SDS011;68178;52.188;5.598;2023-06-24T01:15:08;14.10;;;12.68;;
19137;SDS011;68178;52.188;5.598;2023-06-24T01:17:35;14.15;;;12.75;;
19137;SDS011;68178;52.188;5.598;2023-06-24T01:20:10;14.60;;;13.00;;
19137;SDS011;68178;52.188;5.598;2023-06-24T01:31:39;14.15;;;12.75;;
19137;SDS011;68178;52.188;5.598;2023-06-24T01:34:17;15.02;;;13.32;;
19137;SDS011;68178;52.188;5.598;2023-06-24T01:39:52;15.55;;;14.05;;
19137;SDS011;68178;52.188;5.598;2023-06-24T01:42:41;14.55;;;13.15;;
19137;SDS011;68178;52.188;5.598;2023-06-24T01:45:10;14.93;;;13.43;;
19137;SDS011;68178;52.188;5.598;2023-06-24T01:47:42;15.20;;;13.68;;
19137;SDS011;68178;52.188;5.598;2023-06-24T01:50:11;17.05;;;14.45;;
19137;SDS011;68178;52.188;5.598;2023-06-24T01:52:39;17.25;;;14.75;;
19137;SDS011;68178;52.188;5.598;2023-06-24T01:55:09;15.35;;;13.95;;
19137;SDS011;68178;52.188;5.598;2023-06-24T01:57:36;16.00;;;14.48;;
19137;SDS011;68178;52.188;5.598;2023-06-24T02:00:05;16.25;;;14.65;;
19137;SDS011;68178;52.188;5.598;2023-06-24T02:02:33;16.85;;;15.15;;
19137;SDS011;68178;52.188;5.598;2023-06-24T02:05:00;15.10;;;13.70;;
19137;SDS011;68178;52.188;5.598;2023-06-24T02:07:28;14.32;;;13.00;;
19137;SDS011;68178;52.188;5.598;2023-06-24T02:09:57;14.02;;;12.60;;
19137;SDS011;68178;52.188;5.598;2023-06-24T02:12:25;14.48;;;13.00;;
19137;SDS011;68178;52.188;5.598;2023-06-24T02:14:53;15.00;;;13.63;;
19137;SDS011;68178;52.188;5.598;2023-06-24T02:17:20;16.05;;;14.45;;
19137;SDS011;68178;52.188;5.598;2023-06-24T02:19:49;13.88;;;12.50;;
19137;SDS011;68178;52.188;5.598;2023-06-24T02:22:16;13.38;;;11.95;;
19137;SDS011;68178;52.188;5.598;2023-06-24T02:24:42;13.02;;;11.73;;
19137;SDS011;68178;52.188;5.598;2023-06-24T02:27:09;13.25;;;11.95;;
19137;SDS011;68178;52.188;5.598;2023-06-24T02:29:36;14.45;;;12.27;;
19137;SDS011;68178;52.188;5.598;2023-06-24T02:32:05;12.52;;;11.25;;
19137;SDS011;68178;52.188;5.598;2023-06-24T02:34:31;13.38;;;12.27;;
19137;SDS011;68178;52.188;5.598;2023-06-24T02:36:57;13.70;;;12.43;;
19137;SDS011;68178;52.188;5.598;2023-06-24T02:39:23;14.48;;;12.98;;
19137;SDS011;68178;52.188;5.598;2023-06-24T02:41:50;13.43;;;12.05;;
19137;SDS011;68178;52.188;5.598;2023-06-24T02:44:16;15.48;;;13.70;;
19137;SDS011;68178;52.188;5.598;2023-06-24T02:46:42;14.88;;;13.30;;
19137;SDS011;68178;52.188;5.598;2023-06-24T02:49:11;15.65;;;14.05;;
19137;SDS011;68178;52.188;5.598;2023-06-24T02:51:39;15.18;;;13.65;;
19137;SDS011;68178;52.188;5.598;2023-06-24T02:54:06;17.33;;;15.52;;
19137;SDS011;68178;52.188;5.598;2023-06-24T02:56:32;18.45;;;14.85;;
19137;SDS011;68178;52.188;5.598;2023-06-24T02:58:58;16.50;;;14.80;;
19137;SDS011;68178;52.188;5.598;2023-06-24T03:01:24;16.50;;;14.95;;
19137;SDS011;68178;52.188;5.598;2023-06-24T03:03:54;15.23;;;13.65;;
19137;SDS011;68178;52.188;5.598;2023-06-24T03:06:20;14.98;;;12.80;;
19137;SDS011;68178;52.188;5.598;2023-06-24T03:08:47;12.35;;;11.25;;
19137;SDS011;68178;52.188;5.598;2023-06-24T03:11:14;12.60;;;11.35;;
19137;SDS011;68178;52.188;5.598;2023-06-24T03:13:40;12.50;;;11.30;;
19137;SDS011;68178;52.188;5.598;2023-06-24T03:16:07;14.85;;;12.57;;
19137;SDS011;68178;52.188;5.598;2023-06-24T03:18:38;14.50;;;13.10;;
19137;SDS011;68178;52.188;5.598;2023-06-24T03:21:07;14.07;;;12.68;;
19137;SDS011;68178;52.188;5.598;2023-06-24T03:23:33;14.13;;;12.68;;
19137;SDS011;68178;52.188;5.598;2023-06-24T03:25:59;15.82;;;13.20;;
19137;SDS011;68178;52.188;5.598;2023-06-24T03:28:24;18.10;;;13.50;;
19137;SDS011;68178;52.188;5.598;2023-06-24T03:30:50;15.85;;;13.93;;
19137;SDS011;68178;52.188;5.598;2023-06-24T03:33:16;15.70;;;14.00;;
19137;SDS011;68178;52.188;5.598;2023-06-24T03:35:43;16.20;;;14.60;;
19137;SDS011;68178;52.188;5.598;2023-06-24T03:38:09;17.10;;;15.07;;
19137;SDS011;68178;52.188;5.598;2023-06-24T03:40:36;15.35;;;13.75;;
19137;SDS011;68178;52.188;5.598;2023-06-24T03:43:02;12.75;;;11.52;;
19137;SDS011;68178;52.188;5.598;2023-06-24T03:45:28;13.50;;;12.10;;
19137;SDS011;68178;52.188;5.598;2023-06-24T03:47:53;13.25;;;11.95;;
19137;SDS011;68178;52.188;5.598;2023-06-24T03:50:19;14.23;;;12.80;;
19137;SDS011;68178;52.188;5.598;2023-06-24T03:52:44;13.57;;;12.07;;
19137;SDS011;68178;52.188;5.598;2023-06-24T03:55:11;14.57;;;13.18;;
19137;SDS011;68178;52.188;5.598;2023-06-24T03:57:37;15.55;;;13.27;;
19137;SDS011;68178;52.188;5.598;2023-06-24T04:00:03;14.55;;;13.25;;
19137;SDS011;68178;52.188;5.598;2023-06-24T04:02:41;12.40;;;10.93;;
19137;SDS011;68178;52.188;5.598;2023-06-24T04:05:07;12.95;;;11.65;;
19137;SDS011;68178;52.188;5.598;2023-06-24T04:07:34;12.18;;;11.00;;
19137;SDS011;68178;52.188;5.598;2023-06-24T04:10:01;13.65;;;11.93;;
19137;SDS011;68178;52.188;5.598;2023-06-24T04:12:29;12.70;;;11.60;;
19137;SDS011;68178;52.188;5.598;2023-06-24T04:14:54;16.05;;;14.40;;
19137;SDS011;68178;52.188;5.598;2023-06-24T04:17:20;16.20;;;14.60;;
19137;SDS011;68178;52.188;5.598;2023-06-24T04:19:45;18.20;;;15.52;;
19137;SDS011;68178;52.188;5.598;2023-06-24T04:22:11;18.27;;;16.40;;
19137;SDS011;68178;52.188;5.598;2023-06-24T04:24:37;14.45;;;12.98;;
19137;SDS011;68178;52.188;5.598;2023-06-24T04:27:02;14.48;;;12.98;;
19137;SDS011;68178;52.188;5.598;2023-06-24T04:29:28;15.38;;;12.90;;
19137;SDS011;68178;52.188;5.598;2023-06-24T04:31:54;13.15;;;11.25;;
19137;SDS011;68178;52.188;5.598;2023-06-24T04:34:19;14.25;;;12.20;;
19137;SDS011;68178;52.188;5.598;2023-06-24T04:36:45;17.77;;;14.13;;
19137;SDS011;68178;52.188;5.598;2023-06-24T04:39:11;17.75;;;15.52;;
19137;SDS011;68178;52.188;5.598;2023-06-24T04:41:36;20.33;;;18.05;;
19137;SDS011;68178;52.188;5.598;2023-06-24T04:44:02;14.05;;;11.95;;
19137;SDS011;68178;52.188;5.598;2023-06-24T04:46:30;15.20;;;12.35;;
19137;SDS011;68178;52.188;5.598;2023-06-24T04:48:57;14.32;;;12.98;;
19137;SDS011;68178;52.188;5.598;2023-06-24T04:51:23;17.52;;;13.73;;
19137;SDS011;68178;52.188;5.598;2023-06-24T04:53:49;15.00;;;13.40;;
19137;SDS011;68178;52.188;5.598;2023-06-24T04:56:14;15.98;;;14.32;;
19137;SDS011;68178;52.188;5.598;2023-06-24T04:58:40;15.98;;;14.20;;
19137;SDS011;68178;52.188;5.598;2023-06-24T05:01:05;16.15;;;14.57;;
19137;SDS011;68178;52.188;5.598;2023-06-24T05:03:31;19.33;;;15.35;;
19137;SDS011;68178;52.188;5.598;2023-06-24T05:05:56;19.45;;;16.95;;
19137;SDS011;68178;52.188;5.598;2023-06-24T05:08:22;22.17;;;17.45;;
19137;SDS011;68178;52.188;5.598;2023-06-24T05:10:48;19.60;;;17.08;;
19137;SDS011;68178;52.188;5.598;2023-06-24T05:13:13;18.77;;;16.17;;
19137;SDS011;68178;52.188;5.598;2023-06-24T05:15:39;18.08;;;16.17;;
19137;SDS011;68178;52.188;5.598;2023-06-24T05:18:05;19.20;;;16.30;;
19137;SDS011;68178;52.188;5.598;2023-06-24T05:20:30;20.65;;;15.45;;
19137;SDS011;68178;52.188;5.598;2023-06-24T05:22:57;16.38;;;14.50;;
19137;SDS011;68178;52.188;5.598;2023-06-24T05:25:23;22.85;;;16.27;;
19137;SDS011;68178;52.188;5.598;2023-06-24T05:27:48;19.88;;;13.18;;
19137;SDS011;68178;52.188;5.598;2023-06-24T05:30:14;15.50;;;12.63;;
19137;SDS011;68178;52.188;5.598;2023-06-24T05:32:40;17.13;;;13.77;;
19137;SDS011;68178;52.188;5.598;2023-06-24T05:35:06;15.43;;;13.40;;
19137;SDS011;68178;52.188;5.598;2023-06-24T05:37:32;12.63;;;11.30;;
19137;SDS011;68178;52.188;5.598;2023-06-24T05:39:58;15.73;;;11.00;;
19137;SDS011;68178;52.188;5.598;2023-06-24T05:42:26;12.60;;;10.90;;
19137;SDS011;68178;52.188;5.598;2023-06-24T05:44:52;10.63;;;9.60;;
19137;SDS011;68178;52.188;5.598;2023-06-24T05:47:17;11.70;;;10.57;;
19137;SDS011;68178;52.188;5.598;2023-06-24T05:49:43;9.77;;;8.85;;
19137;SDS011;68178;52.188;5.598;2023-06-24T05:52:09;12.75;;;9.98;;
19137;SDS011;68178;52.188;5.598;2023-06-24T05:54:36;10.85;;;9.77;;
19137;SDS011;68178;52.188;5.598;2023-06-24T05:57:02;11.38;;;9.52;;
19137;SDS011;68178;52.188;5.598;2023-06-24T05:59:31;10.98;;;9.40;;
19137;SDS011;68178;52.188;5.598;2023-06-24T06:01:57;11.05;;;9.88;;
19137;SDS011;68178;52.188;5.598;2023-06-24T06:04:22;10.30;;;8.70;;
19137;SDS011;68178;52.188;5.598;2023-06-24T06:06:48;12.00;;;8.90;;
19137;SDS011;68178;52.188;5.598;2023-06-24T06:09:13;11.20;;;8.55;;
19137;SDS011;68178;52.188;5.598;2023-06-24T06:11:39;13.90;;;8.73;;
19137;SDS011;68178;52.188;5.598;2023-06-24T06:14:04;11.25;;;8.65;;
19137;SDS011;68178;52.188;5.598;2023-06-24T06:16:30;9.40;;;8.48;;
19137;SDS011;68178;52.188;5.598;2023-06-24T06:18:56;9.27;;;8.00;;
19137;SDS011;68178;52.188;5.598;2023-06-24T06:21:22;10.02;;;8.07;;
19137;SDS011;68178;52.188;5.598;2023-06-24T06:23:47;10.68;;;7.85;;
19137;SDS011;68178;52.188;5.598;2023-06-24T06:26:13;9.73;;;8.00;;
19137;SDS011;68178;52.188;5.598;2023-06-24T06:28:39;10.52;;;8.40;;
19137;SDS011;68178;52.188;5.598;2023-06-24T06:31:05;8.48;;;7.57;;
19137;SDS011;68178;52.188;5.598;2023-06-24T06:33:31;9.82;;;6.93;;
19137;SDS011;68178;52.188;5.598;2023-06-24T06:35:56;8.05;;;7.22;;
19137;SDS011;68178;52.188;5.598;2023-06-24T06:38:22;7.63;;;6.85;;
19137;SDS011;68178;52.188;5.598;2023-06-24T06:40:47;7.90;;;7.20;;
19137;SDS011;68178;52.188;5.598;2023-06-24T06:43:13;8.23;;;6.82;;
19137;SDS011;68178;52.188;5.598;2023-06-24T06:45:38;9.30;;;7.40;;
19137;SDS011;68178;52.188;5.598;2023-06-24T06:48:05;7.82;;;6.50;;
19137;SDS011;68178;52.188;5.598;2023-06-24T06:50:32;9.45;;;7.30;;
19137;SDS011;68178;52.188;5.598;2023-06-24T06:52:59;8.07;;;7.28;;
19137;SDS011;68178;52.188;5.598;2023-06-24T06:55:24;8.25;;;7.22;;
19137;SDS011;68178;52.188;5.598;2023-06-24T06:57:51;8.68;;;7.60;;
19137;SDS011;68178;52.188;5.598;2023-06-24T07:00:17;8.80;;;6.95;;
19137;SDS011;68178;52.188;5.598;2023-06-24T07:02:43;8.10;;;7.00;;
19137;SDS011;68178;52.188;5.598;2023-06-24T07:05:08;7.22;;;6.53;;
19137;SDS011;68178;52.188;5.598;2023-06-24T07:07:36;10.38;;;8.05;;
19137;SDS011;68178;52.188;5.598;2023-06-24T07:10:05;8.68;;;7.13;;
19137;SDS011;68178;52.188;5.598;2023-06-24T07:12:30;8.88;;;6.97;;
19137;SDS011;68178;52.188;5.598;2023-06-24T07:14:56;8.23;;;6.40;;
19137;SDS011;68178;52.188;5.598;2023-06-24T07:17:22;7.80;;;6.95;;
19137;SDS011;68178;52.188;5.598;2023-06-24T07:19:47;9.80;;;7.25;;
19137;SDS011;68178;52.188;5.598;2023-06-24T07:22:14;7.10;;;6.38;;
19137;SDS011;68178;52.188;5.598;2023-06-24T07:24:39;10.65;;;6.07;;
19137;SDS011;68178;52.188;5.598;2023-06-24T07:27:05;7.35;;;6.60;;
19137;SDS011;68178;52.188;5.598;2023-06-24T07:29:31;7.93;;;6.35;;
19137;SDS011;68178;52.188;5.598;2023-06-24T07:31:56;8.30;;;6.40;;
19137;SDS011;68178;52.188;5.598;2023-06-24T07:34:22;6.53;;;5.90;;
19137;SDS011;68178;52.188;5.598;2023-06-24T07:36:48;6.13;;;5.53;;
19137;SDS011;68178;52.188;5.598;2023-06-24T07:39:15;9.55;;;5.30;;
19137;SDS011;68178;52.188;5.598;2023-06-24T07:41:41;6.60;;;5.90;;
19137;SDS011;68178;52.188;5.598;2023-06-24T07:44:07;7.03;;;6.35;;
19137;SDS011;68178;52.188;5.598;2023-06-24T07:46:33;6.90;;;6.20;;
19137;SDS011;68178;52.188;5.598;2023-06-24T07:48:59;6.70;;;6.03;;
19137;SDS011;68178;52.188;5.598;2023-06-24T07:51:25;7.43;;;6.00;;
19137;SDS011;68178;52.188;5.598;2023-06-24T07:53:50;6.85;;;6.15;;
19137;SDS011;68178;52.188;5.598;2023-06-24T07:56:16;7.97;;;6.82;;
19137;SDS011;68178;52.188;5.598;2023-06-24T07:58:41;7.43;;;6.05;;
19137;SDS011;68178;52.188;5.598;2023-06-24T08:01:07;9.38;;;6.38;;
19137;SDS011;68178;52.188;5.598;2023-06-24T08:03:33;6.68;;;6.00;;
19137;SDS011;68178;52.188;5.598;2023-06-24T08:05:59;7.03;;;6.32;;
19137;SDS011;68178;52.188;5.598;2023-06-24T08:08:24;6.80;;;5.90;;
19137;SDS011;68178;52.188;5.598;2023-06-24T08:10:50;6.32;;;5.47;;
19137;SDS011;68178;52.188;5.598;2023-06-24T08:13:15;7.30;;;5.35;;
19137;SDS011;68178;52.188;5.598;2023-06-24T08:15:41;6.60;;;5.40;;
19137;SDS011;68178;52.188;5.598;2023-06-24T08:18:07;5.63;;;4.82;;
19137;SDS011;68178;52.188;5.598;2023-06-24T08:20:32;5.45;;;4.88;;
19137;SDS011;68178;52.188;5.598;2023-06-24T08:22:58;6.35;;;4.97;;
19137;SDS011;68178;52.188;5.598;2023-06-24T08:25:24;6.63;;;5.18;;
19137;SDS011;68178;52.188;5.598;2023-06-24T08:27:50;8.73;;;5.13;;
19137;SDS011;68178;52.188;5.598;2023-06-24T08:30:15;5.28;;;4.78;;
19137;SDS011;68178;52.188;5.598;2023-06-24T08:32:41;5.70;;;5.15;;
19137;SDS011;68178;52.188;5.598;2023-06-24T08:35:07;5.60;;;5.07;;
19137;SDS011;68178;52.188;5.598;2023-06-24T08:37:34;5.00;;;4.50;;
19137;SDS011;68178;52.188;5.598;2023-06-24T08:39:59;5.50;;;3.97;;
19137;SDS011;68178;52.188;5.598;2023-06-24T08:42:25;5.07;;;4.45;;
19137;SDS011;68178;52.188;5.598;2023-06-24T08:44:50;4.93;;;4.53;;
19137;SDS011;68178;52.188;5.598;2023-06-24T08:47:17;6.32;;;4.65;;
19137;SDS011;68178;52.188;5.598;2023-06-24T08:49:47;5.55;;;4.47;;
19137;SDS011;68178;52.188;5.598;2023-06-24T08:52:18;5.05;;;4.55;;
19137;SDS011;68178;52.188;5.598;2023-06-24T08:54:46;6.47;;;4.60;;
19137;SDS011;68178;52.188;5.598;2023-06-24T08:57:15;4.28;;;3.88;;
19137;SDS011;68178;52.188;5.598;2023-06-24T08:59:41;4.38;;;3.58;;
19137;SDS011;68178;52.188;5.598;2023-06-24T09:02:07;5.07;;;4.57;;
19137;SDS011;68178;52.188;5.598;2023-06-24T09:04:33;5.32;;;4.82;;
19137;SDS011;68178;52.188;5.598;2023-06-24T09:06:59;7.38;;;5.32;;
19137;SDS011;68178;52.188;5.598;2023-06-24T09:09:25;8.05;;;5.00;;
19137;SDS011;68178;52.188;5.598;2023-06-24T09:11:56;5.68;;;4.80;;
19137;SDS011;68178;52.188;5.598;2023-06-24T09:14:23;5.63;;;5.13;;
19137;SDS011;68178;52.188;5.598;2023-06-24T09:16:56;6.93;;;4.60;;
19137;SDS011;68178;52.188;5.598;2023-06-24T09:19:24;6.35;;;4.50;;
19137;SDS011;68178;52.188;5.598;2023-06-24T09:21:53;5.68;;;5.05;;
19137;SDS011;68178;52.188;5.598;2023-06-24T09:24:18;5.80;;;4.65;;
19137;SDS011;68178;52.188;5.598;2023-06-24T09:26:46;5.15;;;4.65;;
19137;SDS011;68178;52.188;5.598;2023-06-24T09:29:12;6.22;;;5.00;;
19137;SDS011;68178;52.188;5.598;2023-06-24T09:31:48;6.45;;;4.80;;
19137;SDS011;68178;52.188;5.598;2023-06-24T09:34:16;6.47;;;5.88;;
19137;SDS011;68178;52.188;5.598;2023-06-24T09:36:42;7.40;;;5.90;;
19137;SDS011;68178;52.188;5.598;2023-06-24T09:39:09;6.40;;;5.80;;
19137;SDS011;68178;52.188;5.598;2023-06-24T09:41:35;7.07;;;6.05;;
19137;SDS011;68178;52.188;5.598;2023-06-24T09:44:01;7.75;;;6.22;;
19137;SDS011;68178;52.188;5.598;2023-06-24T09:46:27;6.05;;;5.45;;
19137;SDS011;68178;52.188;5.598;2023-06-24T09:48:55;8.55;;;6.60;;
19137;SDS011;68178;52.188;5.598;2023-06-24T09:51:21;6.60;;;6.00;;
19137;SDS011;68178;52.188;5.598;2023-06-24T09:53:48;10.38;;;6.35;;
19137;SDS011;68178;52.188;5.598;2023-06-24T09:56:17;8.10;;;7.13;;
19137;SDS011;68178;52.188;5.598;2023-06-24T09:58:43;7.85;;;7.03;;
19137;SDS011;68178;52.188;5.598;2023-06-24T10:01:10;8.13;;;7.15;;
19137;SDS011;68178;52.188;5.598;2023-06-24T10:03:36;7.55;;;6.10;;
19137;SDS011;68178;52.188;5.598;2023-06-24T10:06:03;8.77;;;7.47;;
19137;SDS011;68178;52.188;5.598;2023-06-24T10:08:30;7.65;;;5.97;;
19137;SDS011;68178;52.188;5.598;2023-06-24T10:10:57;9.20;;;6.75;;
19137;SDS011;68178;52.188;5.598;2023-06-24T10:13:27;7.35;;;6.65;;
19137;SDS011;68178;52.188;5.598;2023-06-24T10:15:54;6.40;;;5.85;;
19137;SDS011;68178;52.188;5.598;2023-06-24T10:20:56;10.90;;;7.18;;
19137;SDS011;68178;52.188;5.598;2023-06-24T10:23:21;6.18;;;5.65;;
19137;SDS011;68178;52.188;5.598;2023-06-24T10:25:47;7.15;;;6.25;;
19137;SDS011;68178;52.188;5.598;2023-06-24T10:28:13;8.57;;;6.53;;
19137;SDS011;68178;52.188;5.598;2023-06-24T10:30:39;12.65;;;7.50;;
19137;SDS011;68178;52.188;5.598;2023-06-24T10:33:04;8.98;;;8.05;;
19137;SDS011;68178;52.188;5.598;2023-06-24T10:35:36;8.30;;;7.50;;
19137;SDS011;68178;52.188;5.598;2023-06-24T10:38:09;11.52;;;7.45;;
19137;SDS011;68178;52.188;5.598;2023-06-24T10:40:36;6.80;;;6.07;;
19137;SDS011;68178;52.188;5.598;2023-06-24T10:45:52;7.78;;;7.07;;
19137;SDS011;68178;52.188;5.598;2023-06-24T10:48:18;10.98;;;6.93;;
19137;SDS011;68178;52.188;5.598;2023-06-24T10:50:47;8.25;;;7.18;;
19137;SDS011;68178;52.188;5.598;2023-06-24T10:53:14;9.45;;;6.32;;
19137;SDS011;68178;52.188;5.598;2023-06-24T10:55:40;10.18;;;8.48;;
19137;SDS011;68178;52.188;5.598;2023-06-24T10:58:12;9.07;;;7.25;;
19137;SDS011;68178;52.188;5.598;2023-06-24T11:00:40;8.57;;;6.82;;
19137;SDS011;68178;52.188;5.598;2023-06-24T11:03:13;7.65;;;6.80;;
19137;SDS011;68178;52.188;5.598;2023-06-24T11:05:41;9.77;;;8.18;;
19137;SDS011;68178;52.188;5.598;2023-06-24T11:08:08;8.07;;;7.32;;
19137;SDS011;68178;52.188;5.598;2023-06-24T11:10:41;10.48;;;7.43;;
19137;SDS011;68178;52.188;5.598;2023-06-24T11:13:08;7.30;;;6.60;;
19137;SDS011;68178;52.188;5.598;2023-06-24T11:15:34;7.00;;;6.30;;
19137;SDS011;68178;52.188;5.598;2023-06-24T11:18:01;7.63;;;6.82;;
19137;SDS011;68178;52.188;5.598;2023-06-24T11:20:29;6.63;;;6.03;;
19137;SDS011;68178;52.188;5.598;2023-06-24T11:22:55;7.65;;;6.93;;
19137;SDS011;68178;52.188;5.598;2023-06-24T11:25:21;6.68;;;6.00;;
19137;SDS011;68178;52.188;5.598;2023-06-24T11:27:47;6.22;;;5.60;;
19137;SDS011;68178;52.188;5.598;2023-06-24T11:30:15;6.28;;;5.68;;
19137;SDS011;68178;52.188;5.598;2023-06-24T11:32:42;6.20;;;5.60;;
19137;SDS011;68178;52.188;5.598;2023-06-24T11:35:09;6.47;;;5.82;;
19137;SDS011;68178;52.188;5.598;2023-06-24T11:37:36;8.63;;;6.38;;
19137;SDS011;68178;52.188;5.598;2023-06-24T11:40:09;8.63;;;7.82;;
19137;SDS011;68178;52.188;5.598;2023-06-24T11:42:36;7.38;;;6.63;;
19137;SDS011;68178;52.188;5.598;2023-06-24T11:45:06;7.03;;;5.93;;
19137;SDS011;68178;52.188;5.598;2023-06-24T11:47:34;8.95;;;7.15;;
19137;SDS011;68178;52.188;5.598;2023-06-24T11:50:02;8.85;;;7.32;;
19137;SDS011;68178;52.188;5.598;2023-06-24T11:52:32;7.45;;;6.50;;
19137;SDS011;68178;52.188;5.598;2023-06-24T12:00:15;10.07;;;7.25;;
19137;SDS011;68178;52.188;5.598;2023-06-24T12:02:41;7.25;;;6.55;;
19137;SDS011;68178;52.188;5.598;2023-06-24T12:05:06;8.23;;;6.78;;
19137;SDS011;68178;52.188;5.598;2023-06-24T12:07:32;6.78;;;6.05;;
19137;SDS011;68178;52.188;5.598;2023-06-24T12:09:59;7.82;;;6.30;;
19137;SDS011;68178;52.188;5.598;2023-06-24T12:12:24;8.85;;;7.25;;
19137;SDS011;68178;52.188;5.598;2023-06-24T12:14:50;7.75;;;5.68;;
19137;SDS011;68178;52.188;5.598;2023-06-24T12:17:15;9.13;;;7.65;;
19137;SDS011;68178;52.188;5.598;2023-06-24T12:19:41;6.85;;;6.25;;
19137;SDS011;68178;52.188;5.598;2023-06-24T12:22:07;7.32;;;6.60;;
19137;SDS011;68178;52.188;5.598;2023-06-24T12:24:32;8.38;;;7.60;;
19137;SDS011;68178;52.188;5.598;2023-06-24T12:26:58;6.18;;;5.65;;
19137;SDS011;68178;52.188;5.598;2023-06-24T12:29:24;9.55;;;7.05;;
19137;SDS011;68178;52.188;5.598;2023-06-24T12:31:49;7.13;;;6.43;;
19137;SDS011;68178;52.188;5.598;2023-06-24T12:34:15;8.95;;;7.13;;
19137;SDS011;68178;52.188;5.598;2023-06-24T12:36:40;7.60;;;6.90;;
19137;SDS011;68178;52.188;5.598;2023-06-24T12:39:06;10.35;;;6.53;;
19137;SDS011;68178;52.188;5.598;2023-06-24T12:41:31;7.40;;;6.57;;
19137;SDS011;68178;52.188;5.598;2023-06-24T12:43:58;8.27;;;7.28;;
19137;SDS011;68178;52.188;5.598;2023-06-24T12:46:24;9.25;;;7.68;;
19137;SDS011;68178;52.188;5.598;2023-06-24T12:48:49;8.13;;;6.53;;
19137;SDS011;68178;52.188;5.598;2023-06-24T12:51:15;8.50;;;6.85;;
19137;SDS011;68178;52.188;5.598;2023-06-24T12:53:41;6.15;;;5.65;;
19137;SDS011;68178;52.188;5.598;2023-06-24T12:56:06;9.43;;;6.90;;
19137;SDS011;68178;52.188;5.598;2023-06-24T12:58:33;6.72;;;6.13;;
19137;SDS011;68178;52.188;5.598;2023-06-24T13:00:59;9.13;;;7.38;;
19137;SDS011;68178;52.188;5.598;2023-06-24T13:03:24;9.25;;;7.15;;
19137;SDS011;68178;52.188;5.598;2023-06-24T13:05:50;5.95;;;5.10;;
19137;SDS011;68178;52.188;5.598;2023-06-24T13:08:16;6.30;;;5.80;;
19137;SDS011;68178;52.188;5.598;2023-06-24T13:10:41;5.55;;;5.03;;
19137;SDS011;68178;52.188;5.598;2023-06-24T13:13:07;8.45;;;6.95;;
19137;SDS011;68178;52.188;5.598;2023-06-24T13:15:32;6.22;;;5.60;;
19137;SDS011;68178;52.188;5.598;2023-06-24T13:17:58;7.10;;;6.38;;
19137;SDS011;68178;52.188;5.598;2023-06-24T13:20:24;10.05;;;7.07;;
19137;SDS011;68178;52.188;5.598;2023-06-24T13:22:49;8.18;;;6.22;;
19137;SDS011;68178;52.188;5.598;2023-06-24T13:25:15;6.95;;;5.82;;
19137;SDS011;68178;52.188;5.598;2023-06-24T13:27:40;7.40;;;6.70;;
19137;SDS011;68178;52.188;5.598;2023-06-24T13:30:06;9.13;;;6.60;;
19137;SDS011;68178;52.188;5.598;2023-06-24T13:32:32;8.07;;;7.15;;
19137;SDS011;68178;52.188;5.598;2023-06-24T13:34:58;7.43;;;6.72;;
19137;SDS011;68178;52.188;5.598;2023-06-24T13:37:23;10.38;;;7.78;;
19137;SDS011;68178;52.188;5.598;2023-06-24T13:39:50;8.25;;;7.38;;
19137;SDS011;68178;52.188;5.598;2023-06-24T13:42:15;7.45;;;6.80;;
19137;SDS011;68178;52.188;5.598;2023-06-24T13:44:41;10.95;;;6.68;;
19137;SDS011;68178;52.188;5.598;2023-06-24T13:47:07;6.95;;;6.07;;
19137;SDS011;68178;52.188;5.598;2023-06-24T13:49:32;7.22;;;6.43;;
19137;SDS011;68178;52.188;5.598;2023-06-24T13:51:58;7.40;;;6.70;;
19137;SDS011;68178;52.188;5.598;2023-06-24T13:54:24;8.65;;;7.40;;
19137;SDS011;68178;52.188;5.598;2023-06-24T13:56:49;8.82;;;6.75;;
19137;SDS011;68178;52.188;5.598;2023-06-24T13:59:15;9.82;;;7.38;;
19137;SDS011;68178;52.188;5.598;2023-06-24T14:01:41;7.72;;;7.03;;
19137;SDS011;68178;52.188;5.598;2023-06-24T14:04:06;9.50;;;6.47;;
19137;SDS011;68178;52.188;5.598;2023-06-24T14:06:32;7.32;;;6.50;;
19137;SDS011;68178;52.188;5.598;2023-06-24T14:08:57;7.15;;;6.38;;
19137;SDS011;68178;52.188;5.598;2023-06-24T14:11:23;7.38;;;6.20;;
19137;SDS011;68178;52.188;5.598;2023-06-24T14:13:49;7.60;;;5.97;;
19137;SDS011;68178;52.188;5.598;2023-06-24T14:16:16;8.13;;;7.00;;
19137;SDS011;68178;52.188;5.598;2023-06-24T14:18:42;9.57;;;7.32;;
19137;SDS011;68178;52.188;5.598;2023-06-24T14:21:08;8.00;;;6.10;;
19137;SDS011;68178;52.188;5.598;2023-06-24T14:23:33;6.85;;;6.25;;
19137;SDS011;68178;52.188;5.598;2023-06-24T14:26:00;8.48;;;5.93;;
19137;SDS011;68178;52.188;5.598;2023-06-24T14:28:26;8.50;;;6.78;;
19137;SDS011;68178;52.188;5.598;2023-06-24T14:30:52;7.80;;;6.63;;
19137;SDS011;68178;52.188;5.598;2023-06-24T14:33:17;7.35;;;6.65;;
19137;SDS011;68178;52.188;5.598;2023-06-24T14:35:43;7.65;;;6.40;;
19137;SDS011;68178;52.188;5.598;2023-06-24T14:38:09;8.50;;;5.93;;
19137;SDS011;68178;52.188;5.598;2023-06-24T14:40:34;9.77;;;6.10;;
19137;SDS011;68178;52.188;5.598;2023-06-24T14:43:00;7.03;;;6.43;;
19137;SDS011;68178;52.188;5.598;2023-06-24T14:45:26;6.97;;;6.18;;
19137;SDS011;68178;52.188;5.598;2023-06-24T14:47:52;5.88;;;5.22;;
19137;SDS011;68178;52.188;5.598;2023-06-24T14:50:18;7.38;;;6.10;;
19137;SDS011;68178;52.188;5.598;2023-06-24T14:52:44;8.38;;;7.32;;
19137;SDS011;68178;52.188;5.598;2023-06-24T14:55:09;10.85;;;6.82;;